Time;durP1;ratioP1;P1;durP2;ratioP2;P2;SDS_P1;SDS_P2;PMS_P1;PMS_P2;Temp;Humidity;BMP_temperature;BMP_pressure;BME280_temperature;BME280_humidity;BME280_pressure;Samples;Min_cycle;Max_cycle;Signal;HPM_P1;HPM_P2
2021/11/14 00:00:49;;;;;;;17.40;3.78;;;;;;;;;;4825687;29;20058;-66
2021/11/14 00:03:20;;;;;;;9.95;2.75;;;;;;;;;;4864130;29;20057;-69
2021/11/14 00:05:52;;;;;;;12.40;2.83;;;;;;;;;;4856941;29;20073;-67
2021/11/14 00:08:24;;;;;;;11.45;3.20;;;;;;;;;;4856544;29;20066;-67
2021/11/14 00:11:01;;;;;;;15.27;2.88;;;;;;;;;;4889330;29;20052;-67
2021/11/14 00:13:32;;;;;;;11.98;3.17;;;;;;;;;;4915742;29;20517;-67
2021/11/14 00:16:02;;;;;;;11.60;2.95;;;;;;;;;;4899215;29;20407;-67
2021/11/14 00:18:34;;;;;;;15.32;3.08;;;;;;;;;;4920076;29;20060;-69
2021/11/14 00:21:05;;;;;;;14.05;3.03;;;;;;;;;;4920752;29;20055;-66
2021/11/14 00:23:36;;;;;;;11.70;2.95;;;;;;;;;;4913716;29;20052;-68
2021/11/14 00:26:07;;;;;;;10.48;2.63;;;;;;;;;;4896736;29;20061;-67
2021/11/14 00:28:41;;;;;;;17.05;3.58;;;;;;;;;;4893243;29;20057;-67
2021/11/14 00:31:17;;;;;;;13.52;2.97;;;;;;;;;;4886188;29;20060;-67
2021/11/14 00:33:49;;;;;;;12.68;2.83;;;;;;;;;;4881667;29;20422;-67
2021/11/14 00:36:23;;;;;;;15.70;3.47;;;;;;;;;;4926537;29;20056;-68
2021/11/14 00:38:54;;;;;;;15.10;3.10;;;;;;;;;;4969272;28;20047;-67
2021/11/14 00:41:26;;;;;;;14.90;3.33;;;;;;;;;;4953736;29;20534;-68
2021/11/14 00:43:57;;;;;;;14.75;3.22;;;;;;;;;;4938380;29;20120;-67
2021/11/14 00:46:27;;;;;;;18.25;3.35;;;;;;;;;;4969585;28;20059;-67
2021/11/14 00:48:58;;;;;;;19.15;3.42;;;;;;;;;;4966804;28;20055;-66
2021/11/14 00:51:29;;;;;;;13.95;3.70;;;;;;;;;;4969326;28;20086;-66
2021/11/14 00:54:03;;;;;;;16.23;2.80;;;;;;;;;;4946284;29;20403;-66
2021/11/14 00:56:34;;;;;;;16.85;3.63;;;;;;;;;;4934086;29;20054;-67
2021/11/14 00:59:05;;;;;;;11.98;3.10;;;;;;;;;;4934351;29;20064;-67
2021/11/14 01:01:36;;;;;;;7.70;4.50;;;;;;;;;;4937688;29;20051;-66
2021/11/14 01:04:07;;;;;;;9.65;4.55;;;;;;;;;;4937868;29;20059;-68
2021/11/14 01:06:37;;;;;;;7.93;4.25;;;;;;;;;;4972887;28;20164;-67
2021/11/14 01:09:08;;;;;;;11.57;4.03;;;;;;;;;;4972497;28;20058;-70
2021/11/14 01:11:40;;;;;;;10.65;5.78;;;;;;;;;;4972821;28;20066;-66
2021/11/14 01:14:30;;;;;;;7.55;4.38;;;;;;;;;;4945859;28;20054;-66
2021/11/14 01:17:00;;;;;;;7.78;4.00;;;;;;;;;;4967111;28;20379;-67
2021/11/14 01:19:31;;;;;;;5.10;2.78;;;;;;;;;;4987923;28;20073;-66
2021/11/14 01:22:02;;;;;;;8.10;3.40;;;;;;;;;;4972416;28;20061;-67
2021/11/14 01:24:34;;;;;;;7.97;3.60;;;;;;;;;;4972312;28;20065;-66
2021/11/14 01:27:05;;;;;;;5.10;2.88;;;;;;;;;;4972215;28;20518;-69
2021/11/14 01:29:36;;;;;;;9.60;2.60;;;;;;;;;;4972730;28;20065;-67
2021/11/14 01:32:27;;;;;;;7.07;3.08;;;;;;;;;;4962840;28;20055;-66
2021/11/14 01:34:57;;;;;;;6.65;2.72;;;;;;;;;;4968783;28;20062;-67
2021/11/14 01:37:27;;;;;;;14.35;2.25;;;;;;;;;;4952491;29;20066;-66
2021/11/14 01:39:58;;;;;;;6.28;1.90;;;;;;;;;;4933351;29;20052;-66
2021/11/14 01:42:29;;;;;;;5.43;1.90;;;;;;;;;;4933768;29;20070;-66
2021/11/14 01:45:00;;;;;;;3.67;2.10;;;;;;;;;;4910936;29;20524;-66
2021/11/14 01:47:31;;;;;;;6.07;2.15;;;;;;;;;;4895490;29;20060;-69
2021/11/14 01:50:01;;;;;;;2.88;1.75;;;;;;;;;;4895620;29;20072;-68
2021/11/14 01:52:32;;;;;;;5.43;2.40;;;;;;;;;;4871045;29;20247;-68
2021/11/14 01:55:04;;;;;;;6.28;1.83;;;;;;;;;;4854699;29;20422;-68
2021/11/14 01:57:37;;;;;;;7.05;2.70;;;;;;;;;;4858003;29;20065;-68
2021/11/14 02:00:12;;;;;;;3.55;1.90;;;;;;;;;;4858394;29;20057;-68
2021/11/14 02:02:43;;;;;;;6.95;2.33;;;;;;;;;;4839265;29;21288;-69
2021/11/14 02:05:14;;;;;;;3.63;1.75;;;;;;;;;;4839206;29;20099;-68
2021/11/14 02:07:45;;;;;;;5.93;2.15;;;;;;;;;;4811725;29;20064;-67
2021/11/14 02:10:16;;;;;;;6.00;2.30;;;;;;;;;;4858187;29;20073;-68
2021/11/14 02:12:47;;;;;;;3.85;1.70;;;;;;;;;;4858180;29;20174;-68
2021/11/14 02:15:18;;;;;;;5.03;1.98;;;;;;;;;;4857855;29;20065;-67
2021/11/14 02:17:49;;;;;;;5.35;1.95;;;;;;;;;;4887982;29;20056;-67
2021/11/14 02:20:22;;;;;;;6.05;1.77;;;;;;;;;;4913846;29;20051;-66
2021/11/14 02:22:53;;;;;;;8.32;2.33;;;;;;;;;;4902834;29;20068;-67
2021/11/14 02:25:24;;;;;;;4.25;1.90;;;;;;;;;;4895175;29;20083;-69
2021/11/14 02:27:55;;;;;;;4.15;1.77;;;;;;;;;;4895094;29;20406;-68
2021/11/14 02:30:26;;;;;;;4.07;1.80;;;;;;;;;;4894621;29;20064;-67
2021/11/14 02:32:57;;;;;;;4.53;2.00;;;;;;;;;;4887442;29;20520;-67
2021/11/14 02:35:45;;;;;;;5.05;1.98;;;;;;;;;;4939538;29;20047;-66
2021/11/14 02:38:17;;;;;;;6.40;2.10;;;;;;;;;;4947902;29;20554;-67
2021/11/14 02:40:49;;;;;;;11.85;2.17;;;;;;;;;;4919534;29;20538;-65
2021/11/14 02:43:21;;;;;;;7.78;2.00;;;;;;;;;;4945408;29;20059;-67
2021/11/14 02:45:52;;;;;;;4.13;2.22;;;;;;;;;;4951781;29;20074;-66
2021/11/14 02:48:23;;;;;;;4.18;1.92;;;;;;;;;;4951630;29;20055;-68
2021/11/14 02:50:55;;;;;;;5.30;1.90;;;;;;;;;;4932439;29;20048;-68
2021/11/14 02:53:27;;;;;;;5.53;2.60;;;;;;;;;;4932593;29;20137;-68
2021/11/14 02:55:58;;;;;;;5.07;1.60;;;;;;;;;;4932505;29;20062;-67
2021/11/14 02:58:30;;;;;;;4.75;1.90;;;;;;;;;;4894255;29;20130;-68
2021/11/14 03:01:11;;;;;;;8.00;1.85;;;;;;;;;;4894527;29;20501;-69
2021/11/14 03:03:44;;;;;;;5.03;2.13;;;;;;;;;;4875194;29;20057;-68
2021/11/14 03:06:16;;;;;;;6.82;2.20;;;;;;;;;;4875974;29;20060;-67
2021/11/14 03:08:47;;;;;;;4.85;2.78;;;;;;;;;;4861308;29;20061;-66
2021/11/14 03:11:18;;;;;;;7.05;1.98;;;;;;;;;;4857257;29;20072;-66
2021/11/14 03:13:49;;;;;;;5.15;1.90;;;;;;;;;;4859021;29;20056;-66
2021/11/14 03:16:21;;;;;;;5.38;1.88;;;;;;;;;;4906895;29;20551;-66
2021/11/14 03:18:54;;;;;;;5.00;1.95;;;;;;;;;;4939057;29;20063;-66
2021/11/14 03:21:25;;;;;;;6.30;2.03;;;;;;;;;;4951408;29;20558;-67
2021/11/14 03:23:56;;;;;;;5.72;2.10;;;;;;;;;;4951673;29;20063;-66
2021/11/14 03:26:28;;;;;;;3.67;1.90;;;;;;;;;;4951117;28;20495;-67
2021/11/14 03:28:58;;;;;;;6.88;1.85;;;;;;;;;;4954653;28;20062;-66
2021/11/14 03:31:29;;;;;;;4.95;2.05;;;;;;;;;;4951039;29;20054;-65
2021/11/14 03:34:00;;;;;;;4.43;1.95;;;;;;;;;;4951317;29;20055;-68
2021/11/14 03:36:31;;;;;;;6.43;2.10;;;;;;;;;;4931975;29;20058;-66
2021/11/14 03:39:05;;;;;;;6.75;2.20;;;;;;;;;;4947905;29;20079;-66
2021/11/14 03:41:39;;;;;;;4.32;2.00;;;;;;;;;;4924207;29;20048;-66
2021/11/14 03:44:11;;;;;;;6.18;1.90;;;;;;;;;;4909400;29;20057;-66
2021/11/14 03:46:41;;;;;;;;;;;;;;;;;;4895593;29;20056;-66
2021/11/14 03:49:15;;;;;;;4.05;1.65;;;;;;;;;;4897884;29;20497;-65
2021/11/14 03:51:45;;;;;;;3.95;1.95;;;;;;;;;;4878893;29;20537;-66
2021/11/14 03:54:17;;;;;;;5.13;1.90;;;;;;;;;;4878734;29;20532;-66
2021/11/14 03:56:47;;;;;;;6.40;1.92;;;;;;;;;;4832437;29;20053;-66
2021/11/14 03:59:18;;;;;;;4.45;2.08;;;;;;;;;;4876750;29;20072;-66
2021/11/14 04:01:49;;;;;;;4.63;1.73;;;;;;;;;;4878428;29;20057;-70
2021/11/14 04:04:19;;;;;;;4.82;1.60;;;;;;;;;;4853443;29;20104;-66
2021/11/14 04:06:50;;;;;;;4.43;1.80;;;;;;;;;;4875068;29;20053;-66
2021/11/14 04:09:22;;;;;;;5.03;1.65;;;;;;;;;;4859841;29;20530;-66
2021/11/14 04:11:53;;;;;;;4.50;1.60;;;;;;;;;;4878480;29;20049;-67
2021/11/14 04:14:27;;;;;;;12.00;2.45;;;;;;;;;;4878681;29;20061;-66
2021/11/14 04:16:58;;;;;;;10.68;1.85;;;;;;;;;;4878327;29;20060;-74
2021/11/14 04:19:29;;;;;;;3.10;1.48;;;;;;;;;;4900565;29;20179;-66
2021/11/14 04:21:59;;;;;;;3.85;1.60;;;;;;;;;;4916093;29;20146;-67
2021/11/14 04:24:29;;;;;;;4.45;1.92;;;;;;;;;;4905683;29;20056;-66
2021/11/14 04:26:59;;;;;;;5.60;1.60;;;;;;;;;;4915706;29;20063;-66
2021/11/14 04:29:30;;;;;;;5.32;1.60;;;;;;;;;;4944682;28;20051;-66
2021/11/14 04:32:01;;;;;;;6.28;1.73;;;;;;;;;;4934735;29;20059;-67
2021/11/14 04:34:31;;;;;;;3.05;1.45;;;;;;;;;;4934589;29;20548;-67
2021/11/14 04:37:02;;;;;;;5.63;1.88;;;;;;;;;;4934962;29;20419;-67
2021/11/14 04:39:33;;;;;;;5.28;2.10;;;;;;;;;;4944648;28;20063;-65
2021/11/14 04:42:07;;;;;;;2.55;1.45;;;;;;;;;;4943858;29;20063;-67
2021/11/14 04:44:37;;;;;;;5.43;1.73;;;;;;;;;;4945262;29;20059;-66
2021/11/14 04:47:07;;;;;;;4.80;2.10;;;;;;;;;;4953787;29;20058;-67
2021/11/14 04:49:39;;;;;;;6.72;2.10;;;;;;;;;;4923958;29;20535;-67
2021/11/14 04:52:10;;;;;;;9.88;2.15;;;;;;;;;;4915705;29;20481;-66
2021/11/14 04:54:40;;;;;;;7.35;2.03;;;;;;;;;;4865821;29;20053;-66
2021/11/14 04:57:10;;;;;;;5.18;1.98;;;;;;;;;;4914959;29;20052;-69
2021/11/14 04:59:41;;;;;;;4.20;1.75;;;;;;;;;;4915143;29;20064;-67
2021/11/14 05:02:11;;;;;;;6.32;1.65;;;;;;;;;;4915287;29;20418;-67
2021/11/14 05:04:42;;;;;;;4.32;1.80;;;;;;;;;;4914760;29;20167;-67
2021/11/14 05:07:14;;;;;;;3.72;1.60;;;;;;;;;;4924147;29;20052;-66
2021/11/14 05:09:44;;;;;;;5.43;1.63;;;;;;;;;;4972406;28;20540;-67
2021/11/14 05:12:16;;;;;;;6.47;1.60;;;;;;;;;;4933727;29;20416;-66
2021/11/14 05:14:49;;;;;;;5.75;1.50;;;;;;;;;;4902361;29;20051;-68
2021/11/14 05:17:19;;;;;;;3.35;1.55;;;;;;;;;;4933533;29;20048;-66
2021/11/14 05:19:50;;;;;;;5.70;1.77;;;;;;;;;;4914568;29;20056;-66
2021/11/14 05:22:20;;;;;;;9.30;1.70;;;;;;;;;;4914829;29;20052;-67
2021/11/14 05:24:52;;;;;;;5.32;1.80;;;;;;;;;;4895410;29;20424;-67
2021/11/14 05:27:23;;;;;;;7.10;1.65;;;;;;;;;;4886193;29;20069;-67
2021/11/14 05:29:53;;;;;;;5.25;1.95;;;;;;;;;;4892129;29;20057;-67
2021/11/14 05:32:23;;;;;;;8.70;1.95;;;;;;;;;;4868071;29;20068;-67
2021/11/14 05:34:54;;;;;;;11.90;2.25;;;;;;;;;;4867996;29;20127;-68
2021/11/14 05:37:24;;;;;;;7.28;1.80;;;;;;;;;;4882364;29;20418;-68
2021/11/14 05:39:55;;;;;;;11.45;2.85;;;;;;;;;;4858399;29;20066;-67
2021/11/14 05:42:25;;;;;;;14.85;2.38;;;;;;;;;;4892853;29;20061;-67
2021/11/14 05:44:59;;;;;;;17.85;2.60;;;;;;;;;;4885956;29;20057;-67
2021/11/14 05:47:30;;;;;;;11.85;2.30;;;;;;;;;;4914477;29;20534;-67
2021/11/14 05:50:00;;;;;;;9.90;2.40;;;;;;;;;;4876192;29;20064;-67
2021/11/14 05:52:31;;;;;;;15.75;2.58;;;;;;;;;;4877026;29;20063;-66
2021/11/14 05:55:04;;;;;;;12.63;1.90;;;;;;;;;;4870086;29;20052;-67
2021/11/14 05:57:56;;;;;;;3.15;1.73;;;;;;;;;;4876934;29;20076;-67
2021/11/14 06:06:25;;;;;;;12.93;2.45;;;;;;;;;;4933279;29;20067;-68
2021/11/14 06:08:59;;;;;;;5.57;2.03;;;;;;;;;;4932471;29;20051;-67
2021/11/14 06:11:29;;;;;;;13.27;2.08;;;;;;;;;;4913909;29;20052;-68
2021/11/14 06:14:00;;;;;;;5.80;2.00;;;;;;;;;;4895207;29;20060;-67
2021/11/14 06:16:31;;;;;;;5.65;1.75;;;;;;;;;;4895281;29;20052;-67
2021/11/14 06:19:02;;;;;;;5.97;1.90;;;;;;;;;;4895283;29;20060;-67
2021/11/14 06:21:39;;;;;;;6.68;1.52;;;;;;;;;;4895032;29;20067;-68
2021/11/14 06:24:10;;;;;;;4.88;1.48;;;;;;;;;;4874732;29;20053;-67
2021/11/14 06:26:43;;;;;;;4.72;1.50;;;;;;;;;;4861517;29;20073;-67
2021/11/14 06:29:33;;;;;;;3.60;1.40;;;;;;;;;;4857826;29;20099;-67
2021/11/14 06:32:04;;;;;;;2.50;1.30;;;;;;;;;;4852809;29;20062;-66
2021/11/14 06:34:36;;;;;;;3.65;1.27;;;;;;;;;;4865865;29;20056;-67
2021/11/14 06:37:07;;;;;;;6.25;1.30;;;;;;;;;;4859123;29;20059;-66
2021/11/14 06:39:39;;;;;;;4.03;1.25;;;;;;;;;;4867245;29;20053;-67
2021/11/14 06:42:09;;;;;;;5.32;1.48;;;;;;;;;;4932502;29;20055;-67
2021/11/14 06:44:40;;;;;;;4.05;1.50;;;;;;;;;;4913397;29;20551;-66
2021/11/14 06:47:13;;;;;;;5.50;1.40;;;;;;;;;;4875778;29;20060;-67
2021/11/14 06:49:46;;;;;;;;;;;;;;;;;;4856104;29;20052;-67
2021/11/14 06:52:16;;;;;;;4.47;1.33;;;;;;;;;;4890576;29;19923;-68
2021/11/14 06:54:47;;;;;;;6.40;1.45;;;;;;;;;;4913284;29;20064;-67
2021/11/14 06:57:21;;;;;;;4.68;1.35;;;;;;;;;;4893642;29;20059;-66
2021/11/14 06:59:51;;;;;;;5.43;1.30;;;;;;;;;;4879481;29;20437;-66
2021/11/14 07:02:22;;;;;;;3.53;1.45;;;;;;;;;;4913136;29;20056;-66
2021/11/14 07:04:52;;;;;;;6.55;1.42;;;;;;;;;;4881642;29;20113;-67
2021/11/14 07:07:24;;;;;;;4.93;1.67;;;;;;;;;;4881493;29;20054;-66
2021/11/14 07:09:54;;;;;;;5.03;1.30;;;;;;;;;;4879167;29;20079;-68
2021/11/14 07:12:26;;;;;;;6.65;1.60;;;;;;;;;;4872272;29;20061;-67
2021/11/14 07:14:57;;;;;;;5.55;1.27;;;;;;;;;;4883199;29;20065;-67
2021/11/14 07:17:28;;;;;;;5.03;1.20;;;;;;;;;;4928668;29;20063;-67
2021/11/14 07:20:00;;;;;;;4.85;1.20;;;;;;;;;;4929215;29;20063;-66
2021/11/14 07:22:30;;;;;;;6.50;1.92;;;;;;;;;;4922865;29;20681;-67
2021/11/14 07:25:03;;;;;;;2.90;1.27;;;;;;;;;;4955488;29;20066;-67
2021/11/14 07:27:34;;;;;;;6.47;1.20;;;;;;;;;;4923636;29;20055;-70
2021/11/14 07:30:05;;;;;;;2.70;1.08;;;;;;;;;;4955597;29;20058;-67
2021/11/14 07:32:35;;;;;;;4.68;1.33;;;;;;;;;;4984993;28;20062;-68
2021/11/14 07:35:06;;;;;;;3.97;0.98;;;;;;;;;;4974342;28;20047;-67
2021/11/14 07:37:38;;;;;;;3.17;1.25;;;;;;;;;;4974342;28;20517;-67
2021/11/14 07:40:11;;;;;;;2.42;1.13;;;;;;;;;;4985190;28;20437;-66
2021/11/14 07:42:44;;;;;;;2.30;1.13;;;;;;;;;;4993768;28;20529;-67
2021/11/14 07:45:18;;;;;;;4.43;1.23;;;;;;;;;;4955027;29;20066;-67
2021/11/14 07:47:49;;;;;;;2.92;1.23;;;;;;;;;;4958130;28;20407;-66
2021/11/14 07:50:23;;;;;;;3.88;1.10;;;;;;;;;;4974430;28;20600;-67
2021/11/14 07:52:54;;;;;;;3.08;1.30;;;;;;;;;;4974134;28;20058;-67
2021/11/14 07:55:24;;;;;;;3.50;1.50;;;;;;;;;;4974361;28;20119;-67
2021/11/14 07:57:58;;;;;;;3.83;1.10;;;;;;;;;;4974071;28;20065;-67
2021/11/14 08:00:29;;;;;;;3.13;1.50;;;;;;;;;;4954615;29;20062;-68
2021/11/14 08:02:59;;;;;;;16.13;7.47;;;;;;;;;;4922218;29;20059;-69
2021/11/14 08:05:31;;;;;;;16.83;7.30;;;;;;;;;;4954337;29;20062;-67
2021/11/14 08:08:01;;;;;;;10.90;4.10;;;;;;;;;;4973501;28;20062;-67
2021/11/14 08:10:33;;;;;;;10.35;5.07;;;;;;;;;;4923245;29;20048;-67
2021/11/14 08:13:07;;;;;;;9.48;4.45;;;;;;;;;;4881489;29;20404;-66
2021/11/14 08:15:38;;;;;;;12.95;6.05;;;;;;;;;;4935163;29;20044;-68
2021/11/14 08:18:09;;;;;;;8.93;3.95;;;;;;;;;;4912846;29;20047;-68
2021/11/14 08:20:39;;;;;;;7.47;3.35;;;;;;;;;;4919801;29;20058;-67
2021/11/14 08:23:09;;;;;;;13.00;5.60;;;;;;;;;;4927751;29;20052;-68
2021/11/14 08:25:39;;;;;;;9.88;4.70;;;;;;;;;;4935008;29;20060;-67
2021/11/14 08:28:11;;;;;;;5.65;1.67;;;;;;;;;;4935034;29;20067;-67
2021/11/14 08:30:43;;;;;;;8.07;3.72;;;;;;;;;;4919650;29;20071;-67
2021/11/14 08:33:33;;;;;;;10.43;5.05;;;;;;;;;;4915027;29;20056;-67
2021/11/14 08:36:05;;;;;;;13.45;6.57;;;;;;;;;;4906232;29;20060;-68
2021/11/14 08:38:36;;;;;;;8.57;2.13;;;;;;;;;;4915546;29;20059;-67
2021/11/14 08:41:07;;;;;;;11.68;5.45;;;;;;;;;;4915343;29;20056;-67
2021/11/14 08:43:40;;;;;;;12.05;5.45;;;;;;;;;;4913266;29;20052;-67
2021/11/14 08:46:11;;;;;;;7.03;3.38;;;;;;;;;;4902312;29;20048;-69
2021/11/14 08:48:41;;;;;;;8.43;3.55;;;;;;;;;;4910164;29;20501;-67
2021/11/14 08:51:13;;;;;;;7.93;3.40;;;;;;;;;;4934462;29;20059;-67
2021/11/14 08:53:43;;;;;;;5.38;2.30;;;;;;;;;;4921685;29;20063;-68
2021/11/14 08:56:14;;;;;;;5.68;2.10;;;;;;;;;;4915645;29;20060;-67
2021/11/14 08:58:44;;;;;;;4.32;2.10;;;;;;;;;;4900035;29;20076;-67
2021/11/14 09:01:15;;;;;;;6.00;1.80;;;;;;;;;;4947448;28;20047;-67
2021/11/14 09:03:45;;;;;;;4.57;1.52;;;;;;;;;;4937653;29;20055;-67
2021/11/14 09:06:16;;;;;;;4.90;1.92;;;;;;;;;;4953446;28;20059;-68
2021/11/14 09:08:46;;;;;;;8.98;1.63;;;;;;;;;;4937584;28;20055;-66
2021/11/14 09:11:17;;;;;;;4.30;1.60;;;;;;;;;;4943335;28;20064;-69
2021/11/14 09:13:49;;;;;;;3.15;1.27;;;;;;;;;;4944158;28;20063;-68
2021/11/14 09:16:20;;;;;;;3.55;1.40;;;;;;;;;;4937776;28;20047;-67
2021/11/14 09:18:51;;;;;;;3.28;1.70;;;;;;;;;;4944082;28;20062;-67
2021/11/14 09:21:22;;;;;;;2.92;1.50;;;;;;;;;;4921627;29;20059;-67
2021/11/14 09:23:53;;;;;;;3.83;1.45;;;;;;;;;;4962819;28;20655;-66
2021/11/14 09:26:23;;;;;;;5.05;1.50;;;;;;;;;;4933867;29;20075;-68
2021/11/14 09:29:13;;;;;;;4.07;1.60;;;;;;;;;;4946325;28;20070;-67
2021/11/14 09:31:45;;;;;;;4.35;1.45;;;;;;;;;;4972360;28;20493;-67
2021/11/14 09:34:15;;;;;;;9.50;1.60;;;;;;;;;;4991464;28;20061;-67
2021/11/14 09:36:47;;;;;;;2.60;1.40;;;;;;;;;;4952934;28;20051;-68
2021/11/14 09:39:18;;;;;;;3.50;1.60;;;;;;;;;;4912045;29;20505;-68
2021/11/14 09:41:54;;;;;;;3.28;1.48;;;;;;;;;;4930292;29;20393;-66
2021/11/14 09:44:24;;;;;;;4.15;1.60;;;;;;;;;;4913652;29;20142;-68
2021/11/14 09:46:57;;;;;;;4.20;1.60;;;;;;;;;;4908989;29;20528;-72
2021/11/14 09:49:31;;;;;;;3.92;1.60;;;;;;;;;;4919544;29;20052;-67
2021/11/14 09:52:05;;;;;;;3.45;1.48;;;;;;;;;;4933287;29;20060;-67
2021/11/14 09:54:35;;;;;;;3.88;1.60;;;;;;;;;;4933497;29;20064;-66
2021/11/14 09:57:06;;;;;;;2.67;1.38;;;;;;;;;;4898473;29;20515;-67
2021/11/14 09:59:37;;;;;;;3.60;1.77;;;;;;;;;;4933124;29;20542;-68
2021/11/14 10:02:09;;;;;;;6.85;2.35;;;;;;;;;;4924220;28;20546;-68
2021/11/14 10:04:44;;;;;;;3.08;1.65;;;;;;;;;;4921990;28;20055;-67
2021/11/14 10:07:17;;;;;;;4.20;1.23;;;;;;;;;;4914170;29;20064;-67
2021/11/14 10:10:12;;;;;;;2.67;1.52;;;;;;;;;;4929797;29;20056;-65
2021/11/14 10:13:15;;;;;;;3.88;1.35;;;;;;;;;;4933207;29;20060;-66
2021/11/14 10:15:57;;;;;;;5.50;1.80;;;;;;;;;;4971644;28;20051;-66
2021/11/14 10:18:27;;;;;;;3.25;1.38;;;;;;;;;;4990769;28;20051;-67
2021/11/14 10:21:01;;;;;;;3.25;1.20;;;;;;;;;;4932608;29;20059;-67
2021/11/14 10:23:35;;;;;;;5.38;1.33;;;;;;;;;;4934276;29;20055;-67
2021/11/14 10:26:11;;;;;;;3.90;1.50;;;;;;;;;;4950419;28;20059;-67
2021/11/14 10:28:45;;;;;;;3.55;1.15;;;;;;;;;;4932774;29;20050;-67
2021/11/14 10:31:26;;;;;;;3.22;1.80;;;;;;;;;;4909773;29;20052;-68
2021/11/14 10:33:56;;;;;;;2.88;1.17;;;;;;;;;;4888950;29;20088;-66
2021/11/14 10:36:27;;;;;;;3.22;1.55;;;;;;;;;;4860605;29;20076;-66
2021/11/14 10:39:18;;;;;;;5.03;1.33;;;;;;;;;;4876220;29;20060;-67
2021/11/14 10:41:49;;;;;;;4.22;1.30;;;;;;;;;;4858894;29;20061;-66
2021/11/14 10:44:21;;;;;;;7.00;1.88;;;;;;;;;;4875954;29;20057;-66
2021/11/14 10:46:51;;;;;;;;;;;;;;;;;;4879328;29;20056;-67
2021/11/14 10:49:22;;;;;;;7.30;2.58;;;;;;;;;;4878664;29;19923;-66
2021/11/14 10:51:59;;;;;;;5.43;1.35;;;;;;;;;;4894265;29;20071;-67
2021/11/14 10:55:11;;;;;;;10.30;3.45;;;;;;;;;;4862782;29;20068;-66
2021/11/14 10:57:42;;;;;;;4.38;2.30;;;;;;;;;;4913599;29;20056;-68
2021/11/14 11:00:13;;;;;;;5.10;1.55;;;;;;;;;;4919407;28;20056;-66
2021/11/14 11:02:46;;;;;;;4.68;1.77;;;;;;;;;;4970653;28;20069;-66
2021/11/14 11:05:20;;;;;;;3.95;1.27;;;;;;;;;;4939756;28;20070;-67
2021/11/14 11:08:05;;;;;;;8.48;1.25;;;;;;;;;;4990004;28;20417;-67
2021/11/14 11:10:38;;;;;;;4.28;1.00;;;;;;;;;;5009666;28;20057;-66
2021/11/14 11:13:17;;;;;;;1.52;0.82;;;;;;;;;;4970515;28;20526;-65
2021/11/14 11:15:51;;;;;;;3.63;1.13;;;;;;;;;;4970737;28;20059;-66
2021/11/14 11:18:22;;;;;;;2.05;1.08;;;;;;;;;;4970722;28;20085;-66
2021/11/14 11:20:55;;;;;;;2.17;1.25;;;;;;;;;;4970792;28;20054;-66
2021/11/14 11:23:27;;;;;;;3.78;1.05;;;;;;;;;;4970526;28;20062;-67
2021/11/14 11:26:01;;;;;;;1.55;0.98;;;;;;;;;;4951230;28;20498;-69
2021/11/14 11:28:33;;;;;;;6.35;1.33;;;;;;;;;;4952610;28;20051;-66
2021/11/14 11:31:09;;;;;;;1.75;0.93;;;;;;;;;;4970559;28;20066;-66
2021/11/14 11:33:43;;;;;;;5.28;1.00;;;;;;;;;;4989961;28;20047;-67
2021/11/14 11:36:15;;;;;;;4.03;1.10;;;;;;;;;;4970482;28;20062;-67
2021/11/14 11:38:47;;;;;;;1.67;0.60;;;;;;;;;;4951069;28;20570;-66
2021/11/14 11:41:19;;;;;;;3.75;1.00;;;;;;;;;;4919622;29;20051;-68
2021/11/14 11:43:51;;;;;;;5.72;0.98;;;;;;;;;;4951225;29;20055;-66
2021/11/14 11:46:30;;;;;;;2.13;0.77;;;;;;;;;;4951246;29;20052;-66
2021/11/14 11:49:05;;;;;;;2.75;1.42;;;;;;;;;;4916179;29;20536;-66
2021/11/14 11:51:41;;;;;;;3.47;0.80;;;;;;;;;;4913040;29;20072;-67
2021/11/14 11:54:15;;;;;;;2.55;0.85;;;;;;;;;;4912908;29;20171;-66
2021/11/14 11:56:50;;;;;;;2.42;0.75;;;;;;;;;;4913071;29;20056;-66
2021/11/14 11:59:29;;;;;;;2.22;0.82;;;;;;;;;;4912990;29;20507;-66
2021/11/14 12:02:07;;;;;;;2.13;0.52;;;;;;;;;;4913057;29;20064;-66
2021/11/14 12:04:43;;;;;;;1.52;0.85;;;;;;;;;;4931236;29;20056;-66
2021/11/14 12:07:21;;;;;;;1.73;0.88;;;;;;;;;;4968236;28;20196;-67
2021/11/14 12:10:01;;;;;;;3.60;0.75;;;;;;;;;;4974272;28;20407;-66
2021/11/14 12:12:38;;;;;;;2.88;0.70;;;;;;;;;;4935130;29;20172;-67
2021/11/14 12:15:54;;;;;;;2.67;0.90;;;;;;;;;;4918133;29;20064;-66
2021/11/14 12:18:24;;;;;;;3.00;1.50;;;;;;;;;;4972473;28;20086;-69
2021/11/14 12:20:55;;;;;;;3.95;0.80;;;;;;;;;;4973906;28;20063;-67
2021/11/14 12:23:36;;;;;;;2.63;1.10;;;;;;;;;;4998494;28;20058;-66
2021/11/14 12:26:10;;;;;;;1.23;0.70;;;;;;;;;;5001097;28;20051;-66
2021/11/14 12:28:44;;;;;;;1.52;0.73;;;;;;;;;;4973093;28;20538;-66
2021/11/14 12:31:25;;;;;;;3.20;0.85;;;;;;;;;;4953821;29;20522;-65
2021/11/14 12:34:08;;;;;;;4.20;0.77;;;;;;;;;;4938292;29;20533;-67
2021/11/14 12:36:44;;;;;;;4.05;1.15;;;;;;;;;;4921616;29;20055;-66
2021/11/14 12:39:39;;;;;;;1.77;0.77;;;;;;;;;;4953910;29;20063;-66
2021/11/14 12:42:15;;;;;;;3.20;1.75;;;;;;;;;;4934378;29;20500;-66
2021/11/14 12:44:52;;;;;;;3.25;1.15;;;;;;;;;;4934558;29;20087;-65
2021/11/14 12:47:41;;;;;;;2.78;1.30;;;;;;;;;;4934141;29;20048;-65
2021/11/14 12:50:15;;;;;;;3.58;2.13;;;;;;;;;;4920385;29;20079;-66
2021/11/14 12:53:06;;;;;;;3.08;1.17;;;;;;;;;;4889154;29;20061;-66
2021/11/14 12:55:40;;;;;;;;;;;;;;;;;;4847853;29;20072;-68
2021/11/14 12:58:14;;;;;;;2.83;1.00;;;;;;;;;;4878043;29;19943;-66
2021/11/14 13:01:02;;;;;;;2.10;1.00;;;;;;;;;;4884516;29;20080;-66
2021/11/14 13:03:38;;;;;;;2.53;0.90;;;;;;;;;;4896310;29;20063;-65
2021/11/14 13:06:24;;;;;;;4.20;1.40;;;;;;;;;;4869194;29;20055;-67
2021/11/14 13:08:56;;;;;;;3.25;0.95;;;;;;;;;;4905966;29;20416;-69
2021/11/14 13:11:29;;;;;;;2.97;0.95;;;;;;;;;;4899692;29;20059;-66
2021/11/14 13:14:10;;;;;;;1.80;0.90;;;;;;;;;;4922075;29;20063;-66
2021/11/14 13:16:46;;;;;;;2.38;1.20;;;;;;;;;;4972527;28;20498;-66
2021/11/14 13:19:19;;;;;;;2.72;1.77;;;;;;;;;;4972232;28;20058;-66
2021/11/14 13:21:51;;;;;;;3.38;1.10;;;;;;;;;;4972646;28;20054;-66
2021/11/14 13:24:22;;;;;;;7.85;1.33;;;;;;;;;;5000326;28;20068;-66
2021/11/14 13:26:58;;;;;;;1.60;0.77;;;;;;;;;;4998889;28;20053;-65
2021/11/14 13:29:36;;;;;;;3.97;1.13;;;;;;;;;;5035750;28;20046;-66
2021/11/14 13:32:09;;;;;;;16.75;9.45;;;;;;;;;;5031011;28;20057;-66
2021/11/14 13:34:42;;;;;;;3.88;1.30;;;;;;;;;;5030787;28;20057;-65
2021/11/14 13:37:16;;;;;;;18.20;11.98;;;;;;;;;;5031190;28;20061;-66
2021/11/14 13:40:12;;;;;;;4.13;1.85;;;;;;;;;;4991435;28;20057;-66
2021/11/14 13:42:49;;;;;;;12.05;5.55;;;;;;;;;;4991131;28;20494;-67
2021/11/14 13:45:25;;;;;;;36.88;21.15;;;;;;;;;;4991518;28;20061;-66
2021/11/14 13:48:06;;;;;;;8.27;4.25;;;;;;;;;;4975696;28;20050;-66
2021/11/14 13:50:56;;;;;;;7.05;2.45;;;;;;;;;;4991590;28;20058;-67
2021/11/14 13:53:28;;;;;;;4.47;1.58;;;;;;;;;;4991574;28;20058;-67
2021/11/14 13:56:01;;;;;;;2.85;0.80;;;;;;;;;;4975754;28;20407;-66
2021/11/14 13:58:45;;;;;;;82.20;51.83;;;;;;;;;;4991003;28;20161;-66
2021/11/14 14:01:16;;;;;;;4.45;1.83;;;;;;;;;;4971550;28;20053;-66
2021/11/14 14:03:49;;;;;;;2.53;0.95;;;;;;;;;;4955346;28;20419;-66
2021/11/14 14:06:20;;;;;;;4.35;1.30;;;;;;;;;;4952048;28;20069;-65
2021/11/14 14:09:17;;;;;;;2.03;1.13;;;;;;;;;;4914781;29;20052;-69
2021/11/14 14:11:49;;;;;;;5.45;2.88;;;;;;;;;;4932976;29;20420;-66
2021/11/14 14:14:19;;;;;;;21.85;12.82;;;;;;;;;;4933219;29;20051;-66
2021/11/14 14:16:50;;;;;;;2.97;1.30;;;;;;;;;;4935654;29;20114;-66
2021/11/14 14:19:22;;;;;;;41.53;25.23;;;;;;;;;;4952355;29;20055;-67
2021/11/14 14:22:01;;;;;;;6.80;3.30;;;;;;;;;;4952406;29;20059;-66
2021/11/14 14:24:41;;;;;;;8.60;4.03;;;;;;;;;;4952273;29;20051;-66
2021/11/14 14:27:23;;;;;;;8.18;4.22;;;;;;;;;;4952261;28;20066;-66
2021/11/14 14:30:12;;;;;;;7.18;2.78;;;;;;;;;;4951376;28;20507;-66
2021/11/14 14:32:51;;;;;;;3.20;0.95;;;;;;;;;;4952340;29;20059;-65
2021/11/14 14:35:25;;;;;;;14.40;7.70;;;;;;;;;;4961925;28;20054;-64
2021/11/14 14:38:05;;;;;;;2.08;1.17;;;;;;;;;;4988320;28;20061;-65
2021/11/14 14:40:38;;;;;;;3.33;0.85;;;;;;;;;;4970932;28;20053;-64
2021/11/14 14:43:23;;;;;;;2.15;1.02;;;;;;;;;;4974505;28;20065;-65
2021/11/14 14:46:04;;;;;;;3.35;1.58;;;;;;;;;;4994781;28;20058;-65
2021/11/14 14:48:39;;;;;;;5.97;2.33;;;;;;;;;;5029798;28;20056;-66
2021/11/14 14:51:17;;;;;;;4.95;1.88;;;;;;;;;;5030156;28;20429;-65
2021/11/14 14:53:58;;;;;;;2.75;1.10;;;;;;;;;;4996669;28;20053;-64
2021/11/14 14:56:31;;;;;;;4.05;1.25;;;;;;;;;;5013872;28;20562;-67
2021/11/14 14:59:08;;;;;;;2.17;1.40;;;;;;;;;;5029627;28;20061;-65
2021/11/14 15:01:47;;;;;;;1.52;0.93;;;;;;;;;;5029704;28;20045;-64
2021/11/14 15:04:20;;;;;;;4.72;1.20;;;;;;;;;;5013516;28;20057;-65
2021/11/14 15:06:52;;;;;;;3.55;1.42;;;;;;;;;;5013040;28;20513;-65
2021/11/14 15:09:27;;;;;;;2.78;1.10;;;;;;;;;;5013671;28;20057;-66
2021/11/14 15:12:15;;;;;;;1.83;0.88;;;;;;;;;;5029656;28;20076;-65
2021/11/14 15:14:49;;;;;;;6.50;2.60;;;;;;;;;;5029704;28;20061;-65
2021/11/14 15:17:25;;;;;;;3.50;1.05;;;;;;;;;;5029537;28;20046;-65
2021/11/14 15:20:04;;;;;;;2.97;1.40;;;;;;;;;;5040556;28;20057;-65
2021/11/14 15:22:40;;;;;;;2.13;1.05;;;;;;;;;;5032700;28;20049;-65
2021/11/14 15:25:17;;;;;;;4.18;1.33;;;;;;;;;;5009350;28;20065;-65
2021/11/14 15:28:08;;;;;;;1.55;0.75;;;;;;;;;;5009764;28;20049;-65